Time;durP1;ratioP1;P1;durP2;ratioP2;P2;SDS_P1;SDS_P2;PMS_P1;PMS_P2;Temp;Humidity;BMP_temperature;BMP_pressure;BME280_temperature;BME280_humidity;BME280_pressure;Samples;Min_cycle;Max_cycle;Signal;HPM_P1;HPM_P2
2022/04/17 00:00:38;;;;;;;1.45;1.30;;;;;;;22.71;13.23;101993.56;5033564;28;20084;-80
2022/04/17 00:03:03;;;;;;;1.40;1.30;;;;;;;22.71;13.19;101992.75;5048724;28;20049;-80
2022/04/17 00:05:32;;;;;;;1.23;1.10;;;;;;;22.71;13.11;101996.28;5048466;28;20464;-80
2022/04/17 00:07:57;;;;;;;1.20;1.10;;;;;;;22.71;13.07;102000.91;5033131;28;20029;-79
2022/04/17 00:10:22;;;;;;;1.15;1.00;;;;;;;22.69;13.07;101999.25;5034091;28;20025;-79
2022/04/17 00:12:48;;;;;;;1.20;1.10;;;;;;;22.71;12.98;101999.00;5032059;28;20021;-79
2022/04/17 00:15:13;;;;;;;1.50;1.13;;;;;;;22.69;13.17;102004.69;5033199;28;20026;-79
2022/04/17 00:17:42;;;;;;;1.30;1.20;;;;;;;22.70;13.02;101997.38;5031773;28;20053;-79
2022/04/17 00:20:17;;;;;;;1.23;1.13;;;;;;;22.71;13.07;102000.91;5033323;28;20033;-79
2022/04/17 00:22:42;;;;;;;1.45;1.17;;;;;;;22.68;13.05;102005.78;5048479;28;20029;-79
2022/04/17 00:25:08;;;;;;;1.13;1.02;;;;;;;22.67;13.04;102017.72;5032996;28;20068;-79
2022/04/17 00:27:34;;;;;;;1.20;1.10;;;;;;;22.67;13.04;102016.91;5033343;28;20025;-79
2022/04/17 00:30:00;;;;;;;1.30;1.20;;;;;;;22.68;13.08;102007.69;5031692;28;20113;-79
2022/04/17 00:32:26;;;;;;;0.88;0.88;;;;;;;22.68;13.10;102004.94;5036394;28;20030;-79
2022/04/17 00:34:51;;;;;;;1.02;0.93;;;;;;;22.65;13.08;102000.78;5037066;28;20025;-79
2022/04/17 00:37:17;;;;;;;0.93;0.90;;;;;;;22.66;12.98;102005.19;5036925;28;20479;-79
2022/04/17 00:39:42;;;;;;;1.30;1.20;;;;;;;22.67;13.11;101995.91;5037033;28;20030;-79
2022/04/17 00:42:09;;;;;;;0.82;0.82;;;;;;;22.67;13.12;101993.19;5036646;28;20045;-79
2022/04/17 00:44:35;;;;;;;1.10;1.00;;;;;;;22.66;13.08;101990.69;5016056;28;20118;-80
2022/04/17 00:47:01;;;;;;;0.82;0.82;;;;;;;22.65;12.99;101986.31;5015999;28;20042;-80
2022/04/17 00:49:26;;;;;;;0.90;0.90;;;;;;;22.66;12.96;101991.56;5016692;28;20022;-79
2022/04/17 00:51:55;;;;;;;1.02;0.80;;;;;;;22.65;13.03;101989.06;5016463;28;20057;-79
2022/04/17 00:54:20;;;;;;;0.90;0.90;;;;;;;22.65;12.90;101995.31;5016784;28;20029;-79
2022/04/17 00:56:46;;;;;;;1.25;1.00;;;;;;;22.62;13.12;101987.59;5016505;28;20465;-80
2022/04/17 00:59:13;;;;;;;1.23;1.13;;;;;;;22.65;12.88;101995.31;5015023;28;20036;-79
2022/04/17 01:01:39;;;;;;;1.10;1.00;;;;;;;22.65;12.88;102006.22;5017434;28;20026;-79
2022/04/17 01:04:05;;;;;;;0.98;0.90;;;;;;;;;;5017389;28;20034;-79
2022/04/17 01:06:30;;;;;;;0.95;0.90;;;;;;;22.66;12.80;102002.44;5016269;28;20052;-79
2022/04/17 01:08:56;;;;;;;0.80;0.80;;;;;;;22.65;12.85;101995.31;5016668;28;20065;-80
2022/04/17 01:11:21;;;;;;;1.15;0.93;;;;;;;22.65;12.66;102000.78;5015341;28;20030;-79
2022/04/17 01:13:47;;;;;;;1.00;0.95;;;;;;;22.66;12.86;102002.44;5015920;28;20025;-80
2022/04/17 01:16:16;;;;;;;1.13;1.02;;;;;;;22.65;12.60;102000.78;5016041;28;20029;-80
2022/04/17 01:19:00;;;;;;;1.00;0.90;;;;;;;22.69;12.85;102010.16;5016006;28;20025;-80
2022/04/17 01:21:26;;;;;;;0.88;0.82;;;;;;;22.67;12.90;102001.38;5016431;28;20033;-80
2022/04/17 01:29:20;;;;;;;1.17;0.90;;;;;;;22.66;12.79;102002.44;5015048;28;20044;-79
2022/04/17 01:31:46;;;;;;;1.35;1.00;;;;;;;;;;5015703;28;20388;-78
2022/04/17 01:34:16;;;;;;;0.80;0.80;;;;;;;22.65;12.72;101999.94;5015752;28;20041;-80
2022/04/17 01:36:44;;;;;;;1.20;1.00;;;;;;;;;;5015999;28;20022;-78
2022/04/17 01:39:10;;;;;;;1.00;0.90;;;;;;;22.63;12.78;102000.19;5015947;28;20037;-79
2022/04/17 01:41:36;;;;;;;1.02;0.90;;;;;;;22.63;12.93;101997.44;5015459;28;20041;-79
2022/04/17 01:44:02;;;;;;;1.10;1.00;;;;;;;22.62;12.84;102003.94;5028599;28;20083;-79
2022/04/17 01:46:27;;;;;;;1.17;1.08;;;;;;;22.63;12.79;102004.81;5035560;28;20022;-80
2022/04/17 01:48:54;;;;;;;0.82;0.80;;;;;;;22.62;12.64;102000.41;5035562;28;20483;-80
2022/04/17 01:51:19;;;;;;;0.85;0.85;;;;;;;22.63;12.63;102002.91;5035558;28;20025;-80
2022/04/17 01:53:45;;;;;;;0.85;0.80;;;;;;;22.65;12.67;102002.69;5050525;28;20468;-79
2022/04/17 01:56:11;;;;;;;0.80;0.80;;;;;;;22.61;12.59;101996.84;5034529;28;20403;-80
2022/04/17 01:58:37;;;;;;;0.95;0.90;;;;;;;22.62;12.65;101998.50;5035135;28;20380;-80
2022/04/17 02:01:03;;;;;;;0.80;0.80;;;;;;;22.62;12.72;102001.22;5036032;28;20512;-80
2022/04/17 02:03:29;;;;;;;1.25;1.13;;;;;;;22.62;12.66;101995.78;5036062;28;20042;-80
2022/04/17 02:05:54;;;;;;;1.20;0.95;;;;;;;22.63;12.60;101996.63;5035395;28;20017;-80
2022/04/17 02:08:20;;;;;;;1.10;0.90;;;;;;;22.62;12.80;101995.78;5035437;28;20025;-79
2022/04/17 02:10:45;;;;;;;1.00;0.88;;;;;;;22.60;12.70;101992.47;5035137;28;20455;-79
2022/04/17 02:13:10;;;;;;;0.98;0.90;;;;;;;22.62;12.66;101998.50;5034984;28;20121;-79
2022/04/17 02:15:36;;;;;;;1.10;1.00;;;;;;;22.62;12.63;101995.78;5035435;28;20025;-79
2022/04/17 02:18:01;;;;;;;0.98;0.90;;;;;;;22.62;12.64;102000.41;5035579;28;20025;-79
2022/04/17 02:20:27;;;;;;;1.02;0.93;;;;;;;22.63;12.63;101996.63;5035887;28;20026;-81
2022/04/17 02:22:52;;;;;;;0.98;0.98;;;;;;;22.61;12.41;101991.41;5035143;28;20468;-79
2022/04/17 02:25:18;;;;;;;1.10;1.00;;;;;;;22.62;12.46;101993.06;5035429;28;20059;-78
2022/04/17 02:27:44;;;;;;;0.80;0.80;;;;;;;22.63;12.50;101996.63;5050985;28;20032;-78
2022/04/17 02:30:09;;;;;;;0.80;0.80;;;;;;;22.61;12.61;101996.84;5034162;28;20403;-78
2022/04/17 02:32:35;;;;;;;1.10;0.90;;;;;;;22.59;12.58;101988.06;5050604;28;20037;-78
2022/04/17 02:35:00;;;;;;;0.85;0.85;;;;;;;22.61;12.59;101988.69;5034355;28;20021;-78
2022/04/17 02:37:26;;;;;;;1.10;1.00;;;;;;;22.62;12.46;101981.34;5035609;28;20034;-78
2022/04/17 02:39:52;;;;;;;0.73;0.70;;;;;;;22.62;12.55;101992.22;5035654;28;20036;-78
2022/04/17 02:42:17;;;;;;;0.80;0.80;;;;;;;22.63;12.41;101986.56;5035174;28;20061;-78
2022/04/17 02:44:42;;;;;;;0.70;0.70;;;;;;;22.61;12.67;101977.78;5017417;28;20034;-79
2022/04/17 02:49:52;;;;;;;2.38;1.00;;;;;;;22.62;12.50;101984.88;5015908;28;20053;-79
2022/04/17 02:52:17;;;;;;;0.80;0.80;;;;;;;22.61;12.45;101985.09;5015650;28;20457;-79
2022/04/17 02:54:43;;;;;;;0.80;0.80;;;;;;;22.61;12.41;101979.66;5014619;28;20487;-79
2022/04/17 02:57:08;;;;;;;0.80;0.80;;;;;;;22.62;12.38;101984.88;5015438;28;20495;-79
2022/04/17 02:59:34;;;;;;;1.10;0.95;;;;;;;22.61;12.48;101977.78;5015106;28;20045;-79
2022/04/17 03:07:29;;;;;;;1.02;0.95;;;;;;;;;;5015162;28;20096;-79
2022/04/17 03:09:54;;;;;;;0.85;0.85;;;;;;;22.61;12.41;101977.78;5014466;28;20076;-79
2022/04/17 03:12:19;;;;;;;0.60;0.60;;;;;;;22.60;12.38;101967.94;5014199;28;20030;-79
2022/04/17 03:14:46;;;;;;;0.75;0.75;;;;;;;22.59;12.48;101971.72;5014859;28;20468;-79
2022/04/17 03:17:12;;;;;;;0.95;0.90;;;;;;;22.58;12.46;101967.34;5014193;28;20030;-79
2022/04/17 03:19:37;;;;;;;0.82;0.73;;;;;;;22.57;12.41;101964.84;5014237;28;20129;-79
2022/04/17 03:22:04;;;;;;;0.95;0.88;;;;;;;22.58;12.40;101959.16;5012688;28;20133;-79
2022/04/17 03:24:31;;;;;;;0.73;0.73;;;;;;;22.59;12.34;101963.53;5014360;28;20026;-79
2022/04/17 03:26:57;;;;;;;0.82;0.70;;;;;;;22.59;12.31;101958.09;5013808;28;20018;-79
2022/04/17 03:29:22;;;;;;;0.50;0.50;;;;;;;22.59;12.37;101958.09;5014207;28;20030;-79
2022/04/17 03:31:48;;;;;;;0.70;0.70;;;;;;;22.59;12.53;101963.53;5013843;28;20129;-79
2022/04/17 03:34:14;;;;;;;0.73;0.70;;;;;;;22.56;12.47;101964.00;5013900;28;20030;-79
2022/04/17 03:36:39;;;;;;;0.70;0.70;;;;;;;22.58;12.37;101966.50;5012495;28;20465;-79
2022/04/17 03:39:06;;;;;;;0.75;0.70;;;;;;;22.58;12.33;101961.88;5014123;28;20028;-79
2022/04/17 03:41:31;;;;;;;0.90;0.90;;;;;;;22.57;12.38;101962.13;5013672;28;20105;-79
2022/04/17 03:43:57;;;;;;;0.80;0.73;;;;;;;22.58;12.40;101963.78;5025082;28;20386;-79
2022/04/17 03:46:22;;;;;;;0.70;0.70;;;;;;;22.58;12.34;101961.88;5032149;28;20361;-80
2022/04/17 03:48:48;;;;;;;0.80;0.80;;;;;;;22.57;12.44;101960.22;5033205;28;20022;-79
2022/04/17 03:51:13;;;;;;;1.00;0.90;;;;;;;22.59;12.45;101962.72;5033288;28;20037;-79
2022/04/17 03:53:39;;;;;;;0.70;0.70;;;;;;;22.59;12.52;101957.25;5033721;28;20018;-79
2022/04/17 03:56:05;;;;;;;0.57;0.57;;;;;;;22.59;12.57;101965.44;5048423;28;20532;-79
2022/04/17 03:58:30;;;;;;;0.68;0.68;;;;;;;22.55;12.42;101956.88;5034136;28;20030;-79
2022/04/17 04:00:55;;;;;;;0.60;0.60;;;;;;;22.58;12.47;101963.78;5033463;28;20487;-79
2022/04/17 04:03:21;;;;;;;0.80;0.70;;;;;;;22.57;12.61;101960.22;5033147;28;20491;-79
2022/04/17 04:05:47;;;;;;;0.60;0.60;;;;;;;22.55;12.69;101951.44;5034326;28;20087;-79
2022/04/17 04:08:12;;;;;;;0.77;0.70;;;;;;;22.57;12.68;101959.38;5053068;28;20546;-79
2022/04/17 04:10:38;;;;;;;0.70;0.70;;;;;;;22.58;12.61;101961.06;5037244;28;20036;-79
2022/04/17 04:13:04;;;;;;;0.77;0.63;;;;;;;22.57;12.68;101960.22;5052552;28;20086;-79
2022/04/17 04:15:29;;;;;;;0.63;0.63;;;;;;;22.57;12.59;101957.50;5037490;28;20025;-79
2022/04/17 04:17:55;;;;;;;0.70;0.70;;;;;;;22.57;12.61;101960.22;5037171;28;20021;-79
2022/04/17 04:20:20;;;;;;;0.70;0.70;;;;;;;22.57;12.74;101975.75;5037025;28;20036;-79
2022/04/17 04:22:46;;;;;;;0.50;0.50;;;;;;;22.55;12.69;101962.34;5036980;28;20079;-79
2022/04/17 04:25:11;;;;;;;0.68;0.68;;;;;;;22.58;12.68;101966.50;5036941;28;20029;-79
2022/04/17 04:30:21;;;;;;;0.82;0.80;;;;;;;22.59;12.73;101958.09;5036963;28;20117;-79
2022/04/17 04:32:53;;;;;;;0.60;0.60;;;;;;;22.60;12.87;101959.75;5037517;28;20403;-80
2022/04/17 04:35:20;;;;;;;0.70;0.70;;;;;;;22.59;12.98;101958.09;5036476;28;20038;-79
2022/04/17 04:37:46;;;;;;;0.75;0.75;;;;;;;22.57;12.92;101959.38;5037598;28;20030;-79
2022/04/17 04:40:11;;;;;;;0.55;0.55;;;;;;;22.58;12.91;101961.88;5036958;28;20412;-80
2022/04/17 04:42:37;;;;;;;0.68;0.68;;;;;;;22.60;13.05;101964.38;5036889;28;20091;-80
2022/04/17 04:47:46;;;;;;;0.70;0.70;;;;;;;22.62;12.95;101962.25;5017190;28;20037;-80
2022/04/17 04:50:12;;;;;;;0.82;0.82;;;;;;;22.61;13.06;101966.88;5016842;28;20025;-79
2022/04/17 04:52:37;;;;;;;0.70;0.70;;;;;;;22.60;13.09;101975.28;5016769;28;20041;-79
2022/04/17 04:55:06;;;;;;;0.70;0.70;;;;;;;22.61;12.99;101969.63;5016443;28;20033;-79
2022/04/17 04:57:31;;;;;;;0.60;0.60;;;;;;;22.61;13.12;101972.34;5017207;28;20030;-80
2022/04/17 04:59:57;;;;;;;0.75;0.75;;;;;;;22.61;13.15;101966.88;5015450;28;20022;-80
2022/04/17 05:02:22;;;;;;;0.77;0.77;;;;;;;22.60;13.12;101965.22;5016599;28;20057;-80
2022/04/17 05:04:48;;;;;;;0.63;0.60;;;;;;;22.61;13.14;101955.13;5016291;28;20030;-79
2022/04/17 05:07:13;;;;;;;0.60;0.60;;;;;;;22.60;13.04;101950.75;5015438;28;20061;-79
2022/04/17 05:09:38;;;;;;;0.60;0.60;;;;;;;22.61;13.25;101945.09;5016516;28;20049;-80
2022/04/17 05:12:04;;;;;;;0.60;0.60;;;;;;;22.58;13.34;101948.25;5016130;28;20030;-80
2022/04/17 05:14:31;;;;;;;0.80;0.80;;;;;;;22.61;13.28;101944.22;5016474;28;20033;-80
2022/04/17 05:16:56;;;;;;;1.25;0.73;;;;;;;22.61;13.19;101953.25;5015943;28;20026;-80
2022/04/17 05:19:24;;;;;;;0.50;0.50;;;;;;;22.60;13.28;101953.50;5016016;28;20337;-80
2022/04/17 05:21:52;;;;;;;0.70;0.70;;;;;;;22.61;13.28;101953.25;4999158;28;20032;-80
2022/04/17 05:24:17;;;;;;;0.75;0.70;;;;;;;22.62;13.31;101960.34;5016836;28;20350;-80
2022/04/17 05:26:43;;;;;;;1.17;0.88;;;;;;;22.62;13.34;101957.63;5016012;28;20098;-79
2022/04/17 05:29:08;;;;;;;0.50;0.50;;;;;;;22.61;13.35;101955.97;5014816;28;20384;-80
2022/04/17 05:31:34;;;;;;;0.60;0.60;;;;;;;22.61;13.35;101949.69;5016173;28;20050;-80
2022/04/17 05:33:59;;;;;;;0.80;0.80;;;;;;;22.62;13.37;101935.00;5016055;28;20461;-80
2022/04/17 05:36:28;;;;;;;0.70;0.70;;;;;;;22.61;13.44;101942.38;5016121;28;20464;-79
2022/04/17 05:38:54;;;;;;;0.63;0.63;;;;;;;22.61;13.53;101939.63;5015822;28;20070;-79
2022/04/17 05:41:21;;;;;;;0.70;0.70;;;;;;;22.61;13.54;101945.09;5015945;28;20126;-79
2022/04/17 05:43:47;;;;;;;0.55;0.52;;;;;;;22.61;13.37;101950.53;4989601;28;20412;-79
2022/04/17 05:46:12;;;;;;;0.55;0.55;;;;;;;22.59;13.44;101954.53;5050985;28;20033;-79
2022/04/17 05:48:38;;;;;;;0.65;0.65;;;;;;;22.63;13.28;101958.47;5034211;28;20033;-80
2022/04/17 05:51:03;;;;;;;0.77;0.68;;;;;;;22.65;13.41;101949.00;5050701;28;20034;-79
2022/04/17 05:53:29;;;;;;;0.55;0.55;;;;;;;22.63;13.44;101950.31;5035484;28;20048;-79
2022/04/17 05:55:54;;;;;;;0.60;0.60;;;;;;;22.66;13.46;101956.13;5035514;28;20486;-79
2022/04/17 05:58:19;;;;;;;0.75;0.70;;;;;;;22.66;13.45;101958.84;5035025;28;20046;-79
2022/04/17 06:00:47;;;;;;;0.70;0.63;;;;;;;22.66;13.33;101956.13;5035202;28;20030;-78
2022/04/17 06:03:15;;;;;;;0.43;0.43;;;;;;;22.65;13.21;101954.44;5035074;28;20554;-79
2022/04/17 06:05:41;;;;;;;0.73;0.60;;;;;;;22.63;13.40;101953.03;5050252;28;20026;-79
2022/04/17 06:08:07;;;;;;;0.50;0.50;;;;;;;22.64;13.41;101963.69;5035209;28;20026;-79
2022/04/17 06:10:33;;;;;;;0.60;0.60;;;;;;;22.65;13.41;101959.91;5035029;28;20483;-79
2022/04/17 06:12:58;;;;;;;0.70;0.60;;;;;;;22.67;13.37;101957.78;5035088;28;20026;-79
2022/04/17 06:15:24;;;;;;;0.68;0.60;;;;;;;22.67;13.45;101960.50;5035163;28;20021;-79
2022/04/17 06:17:49;;;;;;;0.60;0.60;;;;;;;22.67;13.43;101955.03;5035055;28;20029;-79
2022/04/17 06:20:15;;;;;;;0.68;0.60;;;;;;;22.69;13.37;101952.91;5034758;28;20364;-79
2022/04/17 06:22:40;;;;;;;0.68;0.60;;;;;;;22.69;13.36;101952.09;5035132;28;20039;-80
2022/04/17 06:25:10;;;;;;;0.60;0.60;;;;;;;22.69;13.34;101952.91;5033895;28;20022;-79
2022/04/17 06:27:39;;;;;;;0.75;0.75;;;;;;;22.70;13.51;101956.50;5034962;28;20375;-79
2022/04/17 06:30:11;;;;;;;0.52;0.50;;;;;;;22.71;13.30;101952.69;5049684;28;20029;-79
2022/04/17 06:32:37;;;;;;;0.50;0.50;;;;;;;22.73;13.42;101955.19;5034665;28;20108;-80
2022/04/17 06:35:04;;;;;;;0.82;0.63;;;;;;;22.72;13.44;101956.25;5034602;28;20076;-80
2022/04/17 06:37:29;;;;;;;0.90;0.60;;;;;;;22.74;13.36;101956.88;5034101;28;20056;-79
2022/04/17 06:39:57;;;;;;;0.55;0.55;;;;;;;22.73;13.51;101955.19;5050230;28;20408;-79
2022/04/17 06:42:22;;;;;;;0.70;0.55;;;;;;;22.75;13.46;101955.78;5035178;28;20049;-80
2022/04/17 06:44:48;;;;;;;0.32;0.32;;;;;;;22.78;13.42;101949.88;5019281;28;20048;-80
2022/04/17 06:47:13;;;;;;;0.70;0.70;;;;;;;22.79;13.32;101951.56;5014819;28;20030;-80
2022/04/17 06:49:38;;;;;;;0.60;0.60;;;;;;;22.82;13.41;101940.19;5014913;28;20376;-79
2022/04/17 06:52:04;;;;;;;0.80;0.60;;;;;;;22.81;13.32;101943.97;5014617;28;20473;-79
2022/04/17 06:54:29;;;;;;;0.50;0.50;;;;;;;22.81;13.24;101935.78;5014308;28;20425;-80
2022/04/17 06:56:55;;;;;;;0.60;0.60;;;;;;;22.85;13.37;101939.69;5014407;28;20029;-79
2022/04/17 06:59:20;;;;;;;0.70;0.70;;;;;;;22.85;12.95;101934.25;5014391;28;20037;-79
2022/04/17 07:01:46;;;;;;;0.43;0.43;;;;;;;22.86;13.22;101935.94;5014506;28;20022;-79
2022/04/17 07:04:11;;;;;;;0.57;0.50;;;;;;;22.84;13.31;101930.69;5014511;28;20029;-79
2022/04/17 07:06:37;;;;;;;0.50;0.45;;;;;;;22.85;13.38;101942.44;5014398;28;20029;-79
2022/04/17 07:09:02;;;;;;;0.50;0.47;;;;;;;22.84;13.30;101938.88;5014145;28;20021;-80
2022/04/17 07:11:27;;;;;;;0.47;0.47;;;;;;;22.85;13.42;101934.25;5014070;28;20026;-78
2022/04/17 07:13:53;;;;;;;0.60;0.47;;;;;;;22.87;13.34;101937.59;5013989;28;20033;-80
2022/04/17 07:16:19;;;;;;;0.45;0.43;;;;;;;22.84;13.00;101936.16;5015187;28;20094;-80
2022/04/17 07:18:44;;;;;;;0.50;0.50;;;;;;;22.85;13.11;101936.97;5013933;28;20468;-79
2022/04/17 07:21:10;;;;;;;0.50;0.50;;;;;;;22.86;13.14;101942.19;5014122;28;20049;-79
2022/04/17 07:23:35;;;;;;;0.40;0.40;;;;;;;22.86;13.13;101941.38;5014420;28;20036;-79
2022/04/17 07:26:00;;;;;;;0.40;0.40;;;;;;;22.87;13.04;101938.44;5013990;28;20072;-79
2022/04/17 07:28:26;;;;;;;0.70;0.45;;;;;;;22.87;12.82;101930.25;5014073;28;20033;-79
2022/04/17 07:30:51;;;;;;;0.50;0.30;;;;;;;22.90;12.88;101939.84;5012780;28;20072;-79
2022/04/17 07:33:17;;;;;;;0.40;0.40;;;;;;;22.86;12.86;101925.84;5014002;28;20121;-79
2022/04/17 07:35:43;;;;;;;0.35;0.32;;;;;;;22.86;12.91;101925.03;5014290;28;20483;-79
2022/04/17 07:38:08;;;;;;;0.43;0.43;;;;;;;22.85;12.73;101917.91;5013344;28;20415;-79
2022/04/17 07:40:34;;;;;;;0.40;0.40;;;;;;;22.89;12.82;101905.47;5014007;28;20431;-79
2022/04/17 07:43:01;;;;;;;0.40;0.40;;;;;;;22.89;12.62;101919.13;5012499;28;20069;-79
2022/04/17 07:45:28;;;;;;;0.50;0.50;;;;;;;22.86;12.57;101912.22;4994051;28;20503;-80
2022/04/17 07:47:53;;;;;;;0.30;0.30;;;;;;;22.88;12.77;101914.72;4992593;28;20477;-79
2022/04/17 07:50:29;;;;;;;0.40;0.40;;;;;;;22.87;12.62;101916.63;4994130;28;20053;-79
2022/04/17 07:52:55;;;;;;;0.40;0.40;;;;;;;22.91;12.30;101925.16;4992989;28;20022;-79
2022/04/17 07:55:21;;;;;;;0.30;0.30;;;;;;;22.91;12.35;101927.06;4994443;28;20488;-79
2022/04/17 07:57:56;;;;;;;0.30;0.30;;;;;;;22.90;12.53;101928.09;4992534;28;20034;-79
2022/04/17 08:00:23;;;;;;;0.30;0.30;;;;;;;22.91;12.37;101916.97;4994323;28;20030;-79
2022/04/17 08:03:09;;;;;;;0.35;0.30;;;;;;;22.90;12.34;101915.31;4992704;28;20026;-79
2022/04/17 08:05:38;;;;;;;0.30;0.30;;;;;;;22.91;12.44;101913.44;4993875;28;20065;-80
2022/04/17 08:08:06;;;;;;;0.40;0.40;;;;;;;22.92;12.43;101913.19;4993844;28;20401;-80
2022/04/17 08:10:31;;;;;;;0.30;0.30;;;;;;;22.94;12.46;101912.94;4992630;28;20035;-80
2022/04/17 08:12:57;;;;;;;0.30;0.30;;;;;;;22.92;12.56;101912.34;4993935;28;20030;-80
2022/04/17 08:15:22;;;;;;;0.40;0.40;;;;;;;22.91;12.50;101906.06;4994030;28;20515;-80
2022/04/17 08:17:48;;;;;;;0.30;0.30;;;;;;;22.92;12.36;101902.28;4993672;28;20100;-80
2022/04/17 08:20:13;;;;;;;0.30;0.30;;;;;;;22.93;12.38;101901.22;4993925;28;20026;-79
2022/04/17 08:22:39;;;;;;;0.30;0.30;;;;;;;22.94;12.34;101897.44;4993816;28;20424;-80
2022/04/17 08:25:04;;;;;;;0.32;0.32;;;;;;;22.94;12.26;101899.31;4993744;28;20023;-79
2022/04/17 08:27:30;;;;;;;0.30;0.30;;;;;;;22.94;12.28;101904.75;4993953;28;20035;-79
2022/04/17 08:29:55;;;;;;;0.22;0.22;;;;;;;22.96;12.23;101914.38;4993656;28;20492;-79
2022/04/17 08:32:21;;;;;;;0.30;0.30;;;;;;;22.98;12.53;101904.06;4994058;28;20495;-79
2022/04/17 08:34:46;;;;;;;0.22;0.22;;;;;;;22.96;12.33;101903.47;4993583;28;20329;-79
2022/04/17 08:37:11;;;;;;;0.40;0.30;;;;;;;22.96;12.49;101898.03;4993878;28;20030;-79
2022/04/17 08:39:37;;;;;;;0.30;0.30;;;;;;;22.95;12.26;101904.53;4994540;28;20043;-79
2022/04/17 08:42:05;;;;;;;0.30;0.30;;;;;;;22.96;12.36;101900.75;4993444;28;20047;-79
2022/04/17 08:44:31;;;;;;;0.20;0.20;;;;;;;22.99;12.32;101902.16;5016257;28;20028;-79
2022/04/17 08:46:56;;;;;;;0.40;0.40;;;;;;;22.99;12.41;101902.16;5032828;28;20456;-79
2022/04/17 08:49:21;;;;;;;0.20;0.20;;;;;;;23.02;12.33;101901.69;5033162;28;20033;-79
2022/04/17 08:51:51;;;;;;;0.20;0.20;;;;;;;23.01;12.32;101897.34;5032675;28;20030;-80
2022/04/17 08:54:16;;;;;;;0.30;0.30;;;;;;;23.00;12.25;101899.22;5036626;28;20026;-79
2022/04/17 08:56:42;;;;;;;0.28;0.28;;;;;;;23.03;12.18;101904.19;5051904;28;20033;-78
2022/04/17 08:59:07;;;;;;;0.32;0.32;;;;;;;23.05;12.13;101898.50;5036269;28;20431;-79
2022/04/17 09:01:35;;;;;;;0.25;0.20;;;;;;;23.04;12.30;101905.88;5051666;28;20029;-79
2022/04/17 09:04:04;;;;;;;0.30;0.30;;;;;;;23.06;12.14;101897.50;5036663;28;20103;-79
2022/04/17 09:06:30;;;;;;;0.20;0.20;;;;;;;23.06;12.33;101892.88;5036405;28;20076;-79
2022/04/17 09:09:05;;;;;;;0.60;0.30;;;;;;;23.10;12.37;101897.84;5036559;28;20452;-79
2022/04/17 09:11:31;;;;;;;0.35;0.35;;;;;;;23.10;12.33;101895.13;5036386;28;20503;-79
2022/04/17 09:13:57;;;;;;;0.20;0.20;;;;;;;23.10;12.33;101897.84;5036714;28;20060;-79
2022/04/17 09:16:38;;;;;;;0.30;0.25;;;;;;;23.14;12.42;101899.03;5035532;28;20033;-79
2022/04/17 09:19:14;;;;;;;0.30;0.30;;;;;;;23.16;12.29;101900.47;5036708;28;20026;-79
2022/04/17 09:21:40;;;;;;;0.30;0.30;;;;;;;23.14;12.42;101894.41;5052458;28;20025;-79
2022/04/17 09:24:26;;;;;;;0.35;0.22;;;;;;;23.16;12.26;101880.53;5037035;28;20056;-79
2022/04/17 09:26:55;;;;;;;0.40;0.40;;;;;;;23.19;12.37;101877.34;5035528;28;20041;-79
2022/04/17 09:29:24;;;;;;;0.30;0.30;;;;;;;23.19;12.46;101874.63;5036591;28;20471;-79
2022/04/17 09:32:00;;;;;;;0.30;0.30;;;;;;;23.19;12.61;101871.88;5036747;28;20417;-79
2022/04/17 09:34:26;;;;;;;0.13;0.13;;;;;;;23.20;12.51;101863.47;5036600;28;20056;-79
2022/04/17 09:36:58;;;;;;;0.20;0.20;;;;;;;23.21;12.36;101861.56;5036557;28;20029;-79
2022/04/17 09:39:24;;;;;;;0.30;0.30;;;;;;;23.22;12.43;101860.50;5036411;28;20077;-79
2022/04/17 09:41:59;;;;;;;0.20;0.20;;;;;;;23.25;12.73;101857.31;5035128;28;20049;-79
2022/04/17 09:44:38;;;;;;;0.30;0.30;;;;;;;23.27;12.55;101844.28;5026866;28;20033;-79
2022/04/17 09:47:04;;;;;;;0.20;0.20;;;;;;;23.25;12.80;101843.69;5015455;28;20030;-79
2022/04/17 09:49:30;;;;;;;0.30;0.30;;;;;;;23.26;12.66;101839.88;5015451;28;20357;-79
2022/04/17 09:52:08;;;;;;;0.20;0.20;;;;;;;23.30;12.87;101842.94;5016584;28;20037;-79
2022/04/17 09:54:33;;;;;;;0.20;0.20;;;;;;;23.26;13.08;101831.69;5016430;28;20045;-79
2022/04/17 09:56:59;;;;;;;0.20;0.20;;;;;;;23.29;12.81;101825.75;5014796;28;20105;-79
2022/04/17 09:59:24;;;;;;;0.20;0.20;;;;;;;23.29;12.76;101820.31;5015065;28;20032;-79
2022/04/17 10:01:55;;;;;;;0.20;0.20;;;;;;;23.31;13.06;101828.25;5016013;28;20503;-79
2022/04/17 10:04:21;;;;;;;0.20;0.20;;;;;;;23.29;13.15;101827.66;5015382;28;20495;-79
2022/04/17 10:06:59;;;;;;;0.20;0.20;;;;;;;23.31;13.02;101820.91;5015649;28;20034;-79
2022/04/17 10:09:24;;;;;;;0.40;0.40;;;;;;;23.31;13.13;101826.34;5015454;28;20037;-79
2022/04/17 10:11:51;;;;;;;0.30;0.30;;;;;;;23.32;12.93;101822.56;5014316;28;20543;-79
2022/04/17 10:14:16;;;;;;;0.20;0.20;;;;;;;23.32;13.13;101817.09;5014963;28;20033;-79
2022/04/17 10:16:42;;;;;;;0.20;0.20;;;;;;;23.33;13.21;101818.75;5014198;28;20042;-79
2022/04/17 10:19:11;;;;;;;0.30;0.30;;;;;;;23.32;13.39;101811.66;5015030;28;20025;-79
2022/04/17 10:21:37;;;;;;;0.20;0.20;;;;;;;23.33;13.30;101816.03;5014871;28;20396;-79
2022/04/17 10:24:03;;;;;;;1.50;0.40;;;;;;;23.36;13.20;101814.72;5013766;28;20026;-80
2022/04/17 10:26:38;;;;;;;0.20;0.20;;;;;;;23.37;13.19;101811.78;5013916;28;20507;-79
2022/04/17 10:29:05;;;;;;;0.20;0.20;;;;;;;23.35;13.27;101808.47;5013977;28;20036;-79
2022/04/17 10:31:40;;;;;;;0.30;0.30;;;;;;;23.37;13.51;101806.31;5013878;28;20021;-79
2022/04/17 10:34:19;;;;;;;0.13;0.13;;;;;;;23.37;13.49;101802.72;5014280;28;20029;-79
2022/04/17 10:37:08;;;;;;;0.25;0.25;;;;;;;23.37;13.49;101787.22;5013468;28;20026;-79
2022/04/17 10:39:36;;;;;;;0.20;0.20;;;;;;;23.36;13.48;101782.81;4993117;28;20512;-79
2022/04/17 10:42:02;;;;;;;0.30;0.30;;;;;;;23.38;13.45;101788.03;4976880;28;20046;-79
2022/04/17 10:44:28;;;;;;;0.35;0.35;;;;;;;23.37;13.74;101789.94;5002160;28;20575;-79
2022/04/17 10:46:54;;;;;;;0.20;0.20;;;;;;;23.38;13.88;101786.13;5012354;28;20034;-79
2022/04/17 10:49:26;;;;;;;0.30;0.20;;;;;;;23.37;13.78;101786.38;5012286;28;20026;-79
2022/04/17 10:51:53;;;;;;;0.22;0.22;;;;;;;23.37;13.91;101780.91;5012566;28;20030;-79
2022/04/17 10:54:19;;;;;;;0.30;0.30;;;;;;;23.36;13.85;101782.81;5012055;28;20109;-79
2022/04/17 10:56:58;;;;;;;0.30;0.30;;;;;;;23.41;14.06;101776.66;5012188;28;20484;-80
2022/04/17 10:59:33;;;;;;;0.30;0.30;;;;;;;23.39;14.09;101774.16;5012179;28;20034;-80
2022/04/17 11:02:21;;;;;;;0.20;0.20;;;;;;;23.38;14.01;101769.75;5012175;28;20030;-79
2022/04/17 11:04:50;;;;;;;0.20;0.20;;;;;;;23.40;14.05;101769.53;5012237;28;20116;-79
2022/04/17 11:07:15;;;;;;;0.20;0.20;;;;;;;23.40;14.22;101772.25;5012003;28;20468;-79
2022/04/17 11:09:46;;;;;;;0.30;0.30;;;;;;;23.39;14.20;101771.44;5012102;28;20034;-79
2022/04/17 11:12:17;;;;;;;0.22;0.22;;;;;;;23.39;14.41;101768.72;5012026;28;20045;-79
2022/04/17 11:15:01;;;;;;;0.25;0.20;;;;;;;23.42;14.60;101768.22;5011756;28;20033;-79
2022/04/17 11:17:27;;;;;;;0.30;0.20;;;;;;;23.40;14.41;101772.25;5029921;28;20099;-79
2022/04/17 11:19:55;;;;;;;0.25;0.25;;;;;;;23.39;14.50;101774.16;5032782;28;20431;-79
2022/04/17 11:22:25;;;;;;;0.30;0.30;;;;;;;23.38;14.59;101769.75;5033713;28;20425;-79
2022/04/17 11:24:57;;;;;;;0.30;0.30;;;;;;;23.41;14.63;101774.75;5048734;28;20054;-79
2022/04/17 11:27:49;;;;;;;0.43;0.28;;;;;;;23.43;14.88;101761.69;5033823;28;20026;-79
2022/04/17 11:30:14;;;;;;;0.30;0.30;;;;;;;23.38;14.95;101767.03;5030054;28;20112;-79
2022/04/17 11:32:39;;;;;;;0.20;0.20;;;;;;;23.39;15.07;101754.25;5033608;28;20117;-79
2022/04/17 11:35:09;;;;;;;0.20;0.20;;;;;;;23.38;15.21;101760.75;5033797;28;20057;-80
2022/04/17 11:37:34;;;;;;;0.47;0.30;;;;;;;23.40;15.04;101756.75;5033749;28;20033;-79
2022/04/17 11:40:13;;;;;;;0.20;0.20;;;;;;;23.40;15.17;101755.88;5032737;28;20498;-79
2022/04/17 11:42:45;;;;;;;0.28;0.28;;;;;;;23.37;15.20;101754.47;5033207;28;20522;-79
2022/04/17 11:45:18;;;;;;;0.20;0.20;;;;;;;23.36;15.53;101755.53;5033714;28;20091;-79